Time;durP1;ratioP1;P1;durP2;ratioP2;P2;SDS_P1;SDS_P2;PMS_P1;PMS_P2;Temp;Humidity;BMP_temperature;BMP_pressure;BME280_temperature;BME280_humidity;BME280_pressure;Samples;Min_cycle;Max_cycle;Signal;HPM_P1;HPM_P2
2023/05/14 00:00:16;;;;;;;83.20;78.93;;;;;;;24.79;44.38;101863.13;5073943;28;20108;-78
2023/05/14 00:02:41;;;;;;;84.00;79.90;;;;;;;24.77;44.17;101853.53;5074721;28;20044;-79
2023/05/14 00:05:08;;;;;;;82.65;78.35;;;;;;;24.74;44.28;101860.50;5056082;28;20036;-79
2023/05/14 00:07:33;;;;;;;80.63;76.22;;;;;;;24.71;44.50;101857.53;5074104;28;20039;-78
2023/05/14 00:09:59;;;;;;;80.95;76.68;;;;;;;24.69;44.32;101854.28;5074457;28;20044;-79
2023/05/14 00:12:25;;;;;;;78.15;74.07;;;;;;;24.66;44.60;101858.47;5073591;28;20055;-78
2023/05/14 00:14:51;;;;;;;77.85;73.82;;;;;;;24.62;44.49;101849.19;5073880;28;20112;-77
2023/05/14 00:17:17;;;;;;;78.35;74.25;;;;;;;24.60;44.25;101845.91;5073890;28;20082;-78
2023/05/14 00:19:42;;;;;;;79.20;75.22;;;;;;;24.57;44.63;101847.34;5073768;28;20502;-78
2023/05/14 00:22:08;;;;;;;78.22;74.25;;;;;;;24.55;44.36;101846.03;5073686;28;20059;-78
2023/05/14 00:24:34;;;;;;;78.00;73.97;;;;;;;24.51;44.18;101843.06;5055893;28;20029;-78
2023/05/14 00:26:59;;;;;;;80.63;76.57;;;;;;;24.49;44.16;101834.25;5073610;28;20036;-77
2023/05/14 00:29:25;;;;;;;77.78;73.88;;;;;;;24.47;44.36;101835.69;5073305;28;20032;-78
2023/05/14 00:31:50;;;;;;;77.60;73.65;;;;;;;24.44;44.50;101839.06;5073875;28;20064;-78
2023/05/14 00:34:16;;;;;;;80.45;76.40;;;;;;;24.40;44.34;101839.69;5073764;28;20035;-78
2023/05/14 00:36:41;;;;;;;78.50;74.15;;;;;;;24.39;44.61;101831.69;5055528;28;20020;-79
2023/05/14 00:39:07;;;;;;;78.85;74.63;;;;;;;24.35;44.43;101834.28;5074000;28;20036;-79
2023/05/14 00:41:32;;;;;;;78.13;73.60;;;;;;;24.33;44.26;101832.94;5073464;28;20024;-79
2023/05/14 00:43:58;;;;;;;78.13;74.20;;;;;;;24.30;44.08;101831.63;5055473;28;20067;-77
2023/05/14 00:46:23;;;;;;;73.45;69.65;;;;;;;24.28;44.30;101833.88;5073163;28;20032;-77
2023/05/14 00:48:49;;;;;;;81.00;76.60;;;;;;;24.25;44.37;101828.16;5073937;28;20029;-78
2023/05/14 00:51:15;;;;;;;79.28;75.07;;;;;;;24.22;44.58;101824.09;5072903;28;20040;-78
2023/05/14 00:53:41;;;;;;;76.35;72.18;;;;;;;24.19;44.30;101814.47;5055161;28;20111;-78
2023/05/14 00:56:07;;;;;;;76.32;72.05;;;;;;;24.16;44.50;101817.81;5073316;28;20161;-77
2023/05/14 00:58:33;;;;;;;77.70;73.65;;;;;;;24.15;44.48;101818.16;5073263;28;20064;-78
2023/05/14 01:00:58;;;;;;;76.30;72.40;;;;;;;24.11;44.13;101817.94;5056168;28;20029;-77
2023/05/14 01:03:24;;;;;;;77.47;73.47;;;;;;;24.09;44.16;101814.69;5073281;28;20162;-78
2023/05/14 01:06:15;;;;;;;78.22;74.18;;;;;;;24.08;44.01;101815.00;5073039;28;20120;-78
2023/05/14 01:08:56;;;;;;;74.88;71.10;;;;;;;24.02;44.38;101814.28;5054957;28;20041;-78
2023/05/14 01:11:28;;;;;;;75.97;71.68;;;;;;;23.97;44.17;101812.44;5073129;28;20035;-78
2023/05/14 01:14:09;;;;;;;75.95;71.95;;;;;;;23.96;44.36;101804.47;5073236;28;20024;-77
2023/05/14 01:16:37;;;;;;;74.20;70.40;;;;;;;23.93;44.54;101811.41;5055562;28;20416;-77
2023/05/14 01:19:06;;;;;;;73.70;69.80;;;;;;;23.91;44.55;101810.09;5073124;28;20028;-77
2023/05/14 01:21:37;;;;;;;75.00;71.15;;;;;;;23.88;44.48;101808.75;5055127;28;20379;-77
2023/05/14 01:24:03;;;;;;;76.05;71.95;;;;;;;23.85;44.36;101803.84;5073580;28;20086;-77
2023/05/14 01:26:32;;;;;;;73.18;69.28;;;;;;;23.83;44.13;101799.78;5073301;28;20037;-78
2023/05/14 01:29:20;;;;;;;72.63;68.85;;;;;;;23.79;44.14;101799.59;5073036;28;20024;-77
2023/05/14 01:31:48;;;;;;;70.88;67.28;;;;;;;23.75;44.18;101801.31;5073367;28;20478;-77
2023/05/14 01:34:14;;;;;;;75.00;71.03;;;;;;;23.73;44.05;101804.34;5072889;28;20025;-77
2023/05/14 01:36:41;;;;;;;76.43;72.43;;;;;;;23.70;44.46;101810.47;5072795;28;20258;-77
2023/05/14 01:39:08;;;;;;;76.03;71.97;;;;;;;23.67;44.01;101810.28;5072782;28;20056;-76
2023/05/14 01:41:36;;;;;;;74.55;70.75;;;;;;;23.65;44.42;101804.22;5072926;28;20115;-77
2023/05/14 01:44:02;;;;;;;71.03;67.43;;;;;;;23.62;44.53;101802.91;5072781;28;20047;-77
2023/05/14 01:46:31;;;;;;;74.57;70.72;;;;;;;23.59;44.50;101798.00;5072836;28;20060;-78
2023/05/14 01:48:57;;;;;;;74.78;70.63;;;;;;;23.56;44.51;101795.84;5072510;28;20479;-78
2023/05/14 01:51:22;;;;;;;73.55;69.60;;;;;;;23.54;43.99;101792.59;5073201;28;20039;-78
2023/05/14 01:53:48;;;;;;;71.43;67.53;;;;;;;23.52;44.02;101800.34;5072841;28;20063;-77
2023/05/14 01:56:13;;;;;;;72.55;68.35;;;;;;;23.49;44.25;101800.97;5072426;28;20422;-78
2023/05/14 01:58:38;;;;;;;70.43;66.68;;;;;;;23.44;44.52;101801.88;5072687;28;20029;-77
2023/05/14 02:01:04;;;;;;;72.05;68.22;;;;;;;23.42;44.52;101790.31;5055446;28;20397;-77
2023/05/14 02:03:30;;;;;;;69.32;65.60;;;;;;;23.40;44.44;101789.00;5074775;28;20040;-77
2023/05/14 02:05:55;;;;;;;71.18;67.38;;;;;;;23.38;44.19;101785.72;5076548;28;20036;-79
2023/05/14 02:08:21;;;;;;;69.90;66.05;;;;;;;23.34;44.53;101782.75;5075701;28;20032;-78
2023/05/14 02:10:46;;;;;;;69.70;66.20;;;;;;;23.30;44.52;101790.81;5076310;28;20048;-78
2023/05/14 02:13:11;;;;;;;70.88;67.15;;;;;;;23.27;44.76;101783.16;5076518;28;20149;-77
2023/05/14 02:15:37;;;;;;;71.45;67.68;;;;;;;23.24;44.49;101780.19;5041850;28;20472;-77
2023/05/14 02:18:02;;;;;;;71.25;67.25;;;;;;;23.22;44.49;101780.47;5076076;28;20035;-78
2023/05/14 02:20:28;;;;;;;69.50;65.68;;;;;;;23.20;44.35;101779.16;5076785;28;20349;-77
2023/05/14 02:22:53;;;;;;;69.53;65.85;;;;;;;23.16;44.27;101778.94;5076196;28;20029;-77
2023/05/14 02:25:18;;;;;;;70.32;66.32;;;;;;;23.14;44.13;101781.19;5075562;28;20036;-77
2023/05/14 02:27:44;;;;;;;68.90;65.05;;;;;;;23.10;44.32;101780.94;5075613;28;20499;-78
2023/05/14 02:30:10;;;;;;;69.03;65.13;;;;;;;23.08;44.04;101776.88;5075999;28;20032;-77
2023/05/14 02:32:35;;;;;;;67.85;64.35;;;;;;;23.05;44.44;101788.50;5075511;28;20071;-77
2023/05/14 02:35:01;;;;;;;67.75;64.10;;;;;;;23.03;44.55;101783.31;5075509;28;20158;-77
2023/05/14 02:37:26;;;;;;;69.57;65.70;;;;;;;23.00;44.11;101786.63;5075305;28;20071;-77
2023/05/14 02:39:52;;;;;;;69.60;65.50;;;;;;;22.97;44.59;101778.97;5057736;28;20465;-78
2023/05/14 02:42:17;;;;;;;68.28;64.57;;;;;;;22.95;44.16;101783.13;5057738;28;20135;-77
2023/05/14 02:44:43;;;;;;;67.68;64.13;;;;;;;22.89;44.05;101777.72;5075602;28;20029;-77
2023/05/14 02:47:08;;;;;;;66.85;63.25;;;;;;;22.88;44.67;101778.84;5075972;28;20035;-76
2023/05/14 02:49:33;;;;;;;67.22;63.63;;;;;;;22.86;44.64;101781.06;5075744;28;20119;-77
2023/05/14 02:51:59;;;;;;;67.88;64.07;;;;;;;22.84;44.48;101776.97;5075536;28;20028;-77
2023/05/14 02:54:25;;;;;;;69.03;65.22;;;;;;;22.81;44.75;101775.66;5058221;28;20044;-77
2023/05/14 02:56:50;;;;;;;68.95;65.13;;;;;;;22.78;44.31;101776.25;5075425;28;20120;-78
2023/05/14 02:59:16;;;;;;;65.43;61.72;;;;;;;22.77;44.69;101780.09;5074797;28;20162;-78
2023/05/14 03:01:41;;;;;;;67.28;63.67;;;;;;;22.73;44.53;101773.59;5057215;28;20040;-78
2023/05/14 03:04:06;;;;;;;69.22;65.15;;;;;;;22.71;44.72;101767.56;5057584;28;20036;-78
2023/05/14 03:06:32;;;;;;;68.55;64.88;;;;;;;22.68;44.67;101768.97;5075006;28;20052;-78
2023/05/14 03:08:57;;;;;;;67.85;64.20;;;;;;;22.66;44.62;101767.63;5074948;28;20052;-77
2023/05/14 03:11:23;;;;;;;68.38;64.38;;;;;;;22.64;44.72;101764.34;5057823;28;20124;-78
2023/05/14 03:13:48;;;;;;;68.20;64.78;;;;;;;22.59;44.59;101765.25;5074687;28;20065;-78
2023/05/14 03:16:13;;;;;;;67.25;63.35;;;;;;;22.58;44.23;101760.03;5074888;28;20056;-78
2023/05/14 03:18:39;;;;;;;65.70;61.95;;;;;;;22.55;44.63;101763.38;5074840;28;20071;-78
2023/05/14 03:21:05;;;;;;;65.28;61.75;;;;;;;22.53;44.83;101757.34;5057087;28;20117;-77
2023/05/14 03:23:33;;;;;;;65.50;61.75;;;;;;;22.51;44.75;101763.19;5074661;28;20036;-78
2023/05/14 03:25:59;;;;;;;63.80;60.35;;;;;;;22.47;44.64;101760.19;5074448;28;20032;-77
2023/05/14 03:28:25;;;;;;;68.63;64.70;;;;;;;22.45;44.72;101759.69;5075045;28;20468;-78
2023/05/14 03:30:50;;;;;;;64.38;60.70;;;;;;;22.43;44.47;101759.16;5074846;28;20380;-78
2023/05/14 03:33:16;;;;;;;63.40;59.88;;;;;;;22.40;44.70;101751.50;5074488;28;20039;-77
2023/05/14 03:35:41;;;;;;;64.43;60.72;;;;;;;22.39;44.37;101749.03;5074578;28;20033;-78
2023/05/14 03:38:06;;;;;;;63.83;60.13;;;;;;;22.36;44.39;101753.19;5074833;28;20044;-77
2023/05/14 03:40:32;;;;;;;63.72;60.17;;;;;;;22.35;44.52;101748.84;5074414;28;20391;-78
2023/05/14 03:42:57;;;;;;;66.88;63.15;;;;;;;22.32;44.36;101743.09;5056268;28;20064;-78
2023/05/14 03:45:23;;;;;;;69.32;65.60;;;;;;;22.29;44.24;101750.00;5074252;28;20129;-77
2023/05/14 03:47:48;;;;;;;63.92;60.50;;;;;;;22.25;44.80;101741.53;5074326;28;20056;-78
2023/05/14 03:50:14;;;;;;;63.80;60.30;;;;;;;22.24;44.51;101747.31;5074231;28;20094;-77
2023/05/14 03:52:39;;;;;;;64.25;60.70;;;;;;;22.22;44.69;101752.31;5073870;28;20068;-78
2023/05/14 03:55:05;;;;;;;64.68;60.80;;;;;;;22.19;44.53;101745.47;5056328;28;20406;-78
2023/05/14 03:57:30;;;;;;;65.70;61.83;;;;;;;22.15;44.51;101751.81;5074220;28;20480;-79
2023/05/14 03:59:56;;;;;;;62.72;59.20;;;;;;;22.14;44.69;101755.69;5040127;28;20056;-78
2023/05/14 04:02:21;;;;;;;64.65;61.08;;;;;;;22.10;44.41;101743.63;5056696;28;20036;-78
2023/05/14 04:04:47;;;;;;;61.08;57.88;;;;;;;22.08;44.99;101752.19;5055860;28;20495;-77
2023/05/14 04:07:12;;;;;;;63.25;59.78;;;;;;;22.06;44.87;101746.16;5074259;28;20449;-79
2023/05/14 04:09:37;;;;;;;62.35;58.88;;;;;;;22.04;44.52;101746.44;5074360;28;20577;-78
2023/05/14 04:12:03;;;;;;;62.50;59.08;;;;;;;22.01;44.90;101743.50;5074150;28;20029;-78
2023/05/14 04:14:29;;;;;;;62.10;58.70;;;;;;;21.99;44.47;101748.47;5074017;28;20040;-78
2023/05/14 04:16:54;;;;;;;63.40;59.70;;;;;;;21.96;44.67;101744.38;5055549;28;20032;-77
2023/05/14 04:19:20;;;;;;;61.85;58.47;;;;;;;21.94;44.54;101734.78;5074250;28;20038;-78
2023/05/14 04:21:45;;;;;;;62.70;59.30;;;;;;;21.91;44.66;101736.19;5056160;28;20088;-77
2023/05/14 04:24:10;;;;;;;61.50;58.28;;;;;;;21.89;44.66;101732.91;5074038;28;20452;-78
2023/05/14 04:26:36;;;;;;;64.28;60.67;;;;;;;21.88;44.86;101738.72;5072695;28;20028;-78
2023/05/14 04:29:02;;;;;;;61.88;58.45;;;;;;;21.85;44.72;101748.38;5073622;28;20020;-78
2023/05/14 04:31:28;;;;;;;63.28;59.53;;;;;;;21.82;44.87;101740.69;5055402;28;20036;-78
2023/05/14 04:33:54;;;;;;;61.25;57.85;;;;;;;21.79;44.76;101742.09;5074063;28;20029;-78
2023/05/14 04:36:19;;;;;;;61.13;57.67;;;;;;;21.76;44.87;101739.94;5055570;28;20458;-77
2023/05/14 04:38:45;;;;;;;58.70;55.67;;;;;;;21.75;44.61;101745.75;5073255;28;20032;-79
2023/05/14 04:41:10;;;;;;;60.22;57.03;;;;;;;21.73;44.56;101743.28;5073843;28;20570;-78
2023/05/14 04:43:36;;;;;;;61.20;57.90;;;;;;;21.70;44.73;101746.63;5073798;28;20108;-78
2023/05/14 04:46:01;;;;;;;60.75;57.25;;;;;;;21.68;44.85;101748.03;5073789;28;20453;-78
2023/05/14 04:48:27;;;;;;;59.67;56.28;;;;;;;21.67;44.78;101754.63;5073583;28;20033;-77
2023/05/14 04:50:52;;;;;;;60.58;57.30;;;;;;;21.66;45.00;101744.75;5055612;28;20357;-77
2023/05/14 04:53:18;;;;;;;60.15;56.70;;;;;;;21.63;45.06;101742.59;5073738;28;20028;-79
2023/05/14 04:55:43;;;;;;;59.13;56.03;;;;;;;21.61;45.11;101751.94;5073603;28;20040;-78
2023/05/14 04:58:08;;;;;;;60.15;56.88;;;;;;;21.58;44.81;101741.53;5055420;28;20037;-77
2023/05/14 05:00:34;;;;;;;60.25;56.70;;;;;;;21.58;44.63;101743.47;5073539;28;20032;-78
2023/05/14 05:02:59;;;;;;;59.05;55.80;;;;;;;21.55;44.91;101741.31;5073560;28;20028;-78
2023/05/14 05:05:25;;;;;;;58.35;55.20;;;;;;;21.53;44.79;101749.03;5073217;28;20036;-77
2023/05/14 05:07:50;;;;;;;62.72;58.95;;;;;;;21.52;44.80;101748.22;5073807;28;20380;-78
2023/05/14 05:10:16;;;;;;;58.40;55.22;;;;;;;21.51;44.92;101745.75;5073201;28;20060;-77
2023/05/14 05:12:41;;;;;;;56.08;53.00;;;;;;;21.48;45.26;101747.16;5055312;28;20024;-78
2023/05/14 05:15:08;;;;;;;59.33;55.95;;;;;;;21.46;44.87;101751.31;5055264;28;20028;-78
2023/05/14 05:17:33;;;;;;;60.08;56.63;;;;;;;21.46;45.17;101754.06;5055409;28;20032;-78
2023/05/14 05:19:59;;;;;;;56.35;53.28;;;;;;;21.44;44.84;101751.59;5072863;28;20028;-78
2023/05/14 05:22:24;;;;;;;61.38;57.80;;;;;;;21.45;45.04;101753.25;5055436;28;20037;-77
2023/05/14 05:24:50;;;;;;;57.33;53.75;;;;;;;21.42;45.06;101753.81;5073149;28;20388;-77
2023/05/14 05:27:15;;;;;;;58.47;55.17;;;;;;;21.42;44.96;101753.00;5072750;28;20036;-78
2023/05/14 05:29:41;;;;;;;55.47;52.03;;;;;;;21.40;45.11;101756.03;5072929;28;20029;-78
2023/05/14 05:32:07;;;;;;;56.63;53.47;;;;;;;21.38;44.88;101752.72;5073297;28;20028;-78
2023/05/14 05:34:33;;;;;;;55.90;52.58;;;;;;;21.38;44.88;101749.97;5072964;28;20105;-77
2023/05/14 05:36:59;;;;;;;54.42;51.42;;;;;;;21.37;44.82;101759.34;5074278;28;20035;-78
2023/05/14 05:39:24;;;;;;;55.65;52.40;;;;;;;21.37;45.06;101754.66;5076784;28;20205;-76
2023/05/14 05:41:50;;;;;;;54.88;51.78;;;;;;;21.37;44.75;101759.34;5076873;28;20025;-78
2023/05/14 05:44:15;;;;;;;54.20;51.20;;;;;;;21.37;45.30;101762.09;5076990;28;20040;-78
2023/05/14 05:46:40;;;;;;;56.72;53.42;;;;;;;21.37;44.80;101762.09;5076741;28;20032;-79
2023/05/14 05:49:06;;;;;;;56.08;52.88;;;;;;;21.36;44.86;101761.25;5058744;28;20064;-78
2023/05/14 05:51:32;;;;;;;56.03;52.83;;;;;;;21.36;44.93;101755.75;5058961;28;20037;-77
2023/05/14 05:53:57;;;;;;;57.85;54.13;;;;;;;21.36;45.21;101760.44;5058673;28;20028;-77
2023/05/14 05:56:23;;;;;;;56.00;52.88;;;;;;;21.36;45.21;101763.19;5076513;28;20037;-79
2023/05/14 05:58:48;;;;;;;55.58;52.40;;;;;;;21.36;44.92;101763.19;5076286;28;20025;-77
2023/05/14 06:01:13;;;;;;;55.95;52.42;;;;;;;21.35;44.84;101759.63;5058635;28;20029;-77
2023/05/14 06:03:39;;;;;;;56.22;53.03;;;;;;;21.35;45.21;101767.06;5076352;28;20464;-77
2023/05/14 06:06:05;;;;;;;55.05;51.58;;;;;;;21.35;45.31;101770.63;5076683;28;20136;-78
2023/05/14 06:08:30;;;;;;;55.40;52.10;;;;;;;21.34;45.36;101771.75;5075630;28;20086;-77
2023/05/14 06:10:56;;;;;;;55.08;52.17;;;;;;;21.33;45.36;101774.78;5076198;28;20025;-77
2023/05/14 06:13:21;;;;;;;54.42;51.13;;;;;;;21.32;45.08;101773.97;5076702;28;20441;-78
2023/05/14 06:15:47;;;;;;;54.85;51.60;;;;;;;21.33;44.88;101777.53;5076023;28;20111;-78
2023/05/14 06:18:12;;;;;;;53.42;50.35;;;;;;;21.33;45.55;101786.56;5075364;28;20376;-77
2023/05/14 06:20:38;;;;;;;56.15;52.75;;;;;;;21.32;45.01;101784.94;5075866;28;20036;-77
2023/05/14 06:23:04;;;;;;;56.33;53.28;;;;;;;21.31;45.34;101780.53;5075688;28;20115;-77
2023/05/14 06:25:30;;;;;;;55.47;52.42;;;;;;;21.30;45.13;101778.09;5075558;28;20031;-76
2023/05/14 06:27:55;;;;;;;54.40;51.40;;;;;;;21.30;45.17;101786.34;5076401;28;20044;-78
2023/05/14 06:30:20;;;;;;;56.13;52.63;;;;;;;21.32;45.35;101789.63;5058240;28;20035;-76
2023/05/14 06:32:46;;;;;;;55.72;52.30;;;;;;;21.32;45.07;101789.63;5057451;28;20028;-76
2023/05/14 06:35:11;;;;;;;55.17;52.08;;;;;;;21.32;45.07;101795.13;5057992;28;20464;-78
2023/05/14 06:37:37;;;;;;;55.17;51.90;;;;;;;21.34;45.46;101799.22;5075276;28;20067;-78
2023/05/14 06:40:02;;;;;;;54.75;51.75;;;;;;;21.34;45.01;101792.88;5075363;28;20357;-78
2023/05/14 06:42:28;;;;;;;55.03;51.97;;;;;;;21.34;44.88;101796.47;5075366;28;20136;-77
2023/05/14 06:44:53;;;;;;;55.20;51.97;;;;;;;21.34;45.04;101780.00;5057454;28;20032;-76
2023/05/14 06:47:19;;;;;;;55.22;52.03;;;;;;;21.34;45.51;101780.00;5075257;28;20431;-78
2023/05/14 06:49:44;;;;;;;55.47;52.30;;;;;;;21.34;45.04;101785.47;5074459;28;20090;-78
2023/05/14 06:52:09;;;;;;;55.05;51.92;;;;;;;21.35;45.20;101786.31;5075205;28;20029;-76
2023/05/14 06:54:35;;;;;;;56.63;53.17;;;;;;;21.36;45.12;101782.44;5074947;28;20032;-75
2023/05/14 06:57:00;;;;;;;54.97;51.83;;;;;;;21.37;45.25;101778.59;5074992;28;20028;-77
2023/05/14 06:59:26;;;;;;;55.20;51.78;;;;;;;21.38;45.64;101777.47;5075064;28;20109;-79
2023/05/14 07:01:51;;;;;;;53.83;50.78;;;;;;;21.39;45.11;101781.88;5074814;28;20100;-77
2023/05/14 07:04:16;;;;;;;55.22;52.08;;;;;;;21.39;45.26;101779.97;5075162;28;20036;-77
2023/05/14 07:06:42;;;;;;;56.97;53.70;;;;;;;21.41;45.61;101785.16;5074730;28;20039;-76
2023/05/14 07:09:07;;;;;;;55.47;52.00;;;;;;;21.40;45.30;101794.53;5074645;28;20049;-76
2023/05/14 07:11:33;;;;;;;55.47;52.00;;;;;;;21.41;45.32;101792.59;5074692;28;20115;-74
2023/05/14 07:13:58;;;;;;;56.50;53.35;;;;;;;21.42;45.76;101791.47;5074589;28;20234;-76
2023/05/14 07:16:25;;;;;;;53.55;50.42;;;;;;;21.42;45.56;101778.56;5074801;28;20030;-77
2023/05/14 07:18:50;;;;;;;55.00;52.00;;;;;;;21.44;45.41;101781.00;5074552;28;20032;-77
2023/05/14 07:21:15;;;;;;;56.47;53.08;;;;;;;21.46;45.71;101787.03;5074460;28;20482;-75
2023/05/14 07:23:41;;;;;;;55.58;52.38;;;;;;;21.47;45.40;101786.75;5074322;28;20441;-76
2023/05/14 07:26:07;;;;;;;54.70;51.50;;;;;;;21.48;45.52;101787.56;5056761;28;20028;-76
2023/05/14 07:28:33;;;;;;;55.30;52.10;;;;;;;21.46;45.87;101790.59;5074372;28;20086;-75
2023/05/14 07:30:58;;;;;;;54.72;51.65;;;;;;;21.48;45.85;101782.06;5073855;28;20041;-76
2023/05/14 07:33:24;;;;;;;53.95;50.63;;;;;;;21.50;45.78;101783.41;5074469;28;20029;-75
2023/05/14 07:35:50;;;;;;;55.55;52.45;;;;;;;21.53;46.06;101785.59;5074410;28;20478;-76
2023/05/14 07:38:15;;;;;;;54.60;51.55;;;;;;;21.54;45.90;101781.72;5073783;28;20060;-76
2023/05/14 07:40:42;;;;;;;58.05;54.70;;;;;;;21.57;45.58;101783.91;5074024;28;20052;-75
2023/05/14 07:43:07;;;;;;;56.05;52.95;;;;;;;21.57;45.67;101783.91;5073955;28;20102;-75
2023/05/14 07:45:33;;;;;;;55.08;51.97;;;;;;;21.59;46.32;101778.09;5056075;28;20123;-75
2023/05/14 07:47:58;;;;;;;55.50;52.20;;;;;;;21.63;46.17;101770.91;5073520;28;20098;-76
2023/05/14 07:50:24;;;;;;;55.38;52.15;;;;;;;21.64;46.02;101778.03;5074429;28;20028;-78
2023/05/14 07:52:49;;;;;;;56.05;52.85;;;;;;;21.67;45.77;101765.63;5055927;28;20033;-77
2023/05/14 07:55:15;;;;;;;56.65;53.38;;;;;;;21.69;46.29;101763.41;5073928;28;20032;-77
2023/05/14 07:57:41;;;;;;;54.83;51.92;;;;;;;21.71;46.18;101767.50;5073606;28;20032;-79
2023/05/14 08:00:07;;;;;;;58.53;55.03;;;;;;;21.75;46.07;101765.00;5072837;28;20028;-78
2023/05/14 08:02:32;;;;;;;56.15;53.00;;;;;;;21.76;46.03;101758.38;5073456;28;20071;-77
2023/05/14 08:04:58;;;;;;;57.15;53.75;;;;;;;21.78;46.54;101762.47;5056347;28;20035;-76
2023/05/14 08:07:23;;;;;;;57.67;54.35;;;;;;;21.81;46.50;101766.56;5055881;28;20049;-78
2023/05/14 08:09:49;;;;;;;63.92;59.83;;;;;;;21.84;46.20;101765.97;5073616;28;20076;-79
2023/05/14 08:12:15;;;;;;;56.50;53.20;;;;;;;21.88;46.39;101758.78;5038795;28;20047;-79
2023/05/14 08:14:40;;;;;;;57.78;54.33;;;;;;;21.91;46.19;101768.38;5056017;28;20112;-75
2023/05/14 08:17:05;;;;;;;57.97;54.88;;;;;;;21.93;46.38;101769.72;5073319;28;20028;-77
2023/05/14 08:19:31;;;;;;;61.63;58.22;;;;;;;21.97;46.45;101768.03;5073438;28;20082;-77
2023/05/14 08:21:57;;;;;;;57.33;54.33;;;;;;;22.01;46.53;101773.75;5073426;28;20028;-78
2023/05/14 08:24:22;;;;;;;57.95;54.53;;;;;;;22.04;46.67;101776.72;5073433;28;20473;-78
2023/05/14 08:26:48;;;;;;;61.53;58.08;;;;;;;22.09;46.59;101775.03;5055572;28;20392;-76
2023/05/14 08:29:13;;;;;;;57.75;54.65;;;;;;;22.12;46.78;101788.19;5073816;28;20055;-78
2023/05/14 08:31:39;;;;;;;56.88;53.63;;;;;;;22.14;46.59;101774.94;5073500;28;20028;-77
2023/05/14 08:34:04;;;;;;;57.25;54.10;;;;;;;22.19;47.16;101781.22;5072861;28;20032;-78
2023/05/14 08:36:30;;;;;;;58.97;55.60;;;;;;;22.23;47.04;101779.53;5073540;28;20421;-80
2023/05/14 08:38:56;;;;;;;59.10;55.42;;;;;;;22.25;46.96;101781.97;5054849;28;20032;-78
2023/05/14 08:41:21;;;;;;;59.90;56.60;;;;;;;22.29;47.06;101782.22;5073487;28;20037;-82
2023/05/14 08:43:54;;;;;;;61.10;57.65;;;;;;;22.32;47.15;101776.94;5073070;28;20032;-82
2023/05/14 08:46:22;;;;;;;57.05;53.90;;;;;;;22.35;47.16;101768.09;5073495;28;20031;-79
2023/05/14 08:48:56;;;;;;;62.88;59.20;;;;;;;22.41;47.42;101780.66;5073037;28;20029;-79
2023/05/14 08:51:21;;;;;;;60.08;56.65;;;;;;;22.44;47.26;101770.97;5073373;28;20032;-78
2023/05/14 08:53:47;;;;;;;61.53;58.10;;;;;;;22.46;47.49;101766.81;5072964;28;20098;-78
2023/05/14 08:56:15;;;;;;;59.33;56.17;;;;;;;22.52;47.51;101766.75;5073043;28;20396;-79
2023/05/14 08:58:40;;;;;;;63.17;59.80;;;;;;;22.55;47.06;101772.47;5073075;28;20063;-78
2023/05/14 09:01:06;;;;;;;59.13;55.95;;;;;;;22.58;47.68;101771.03;5073159;28;20453;-78
2023/05/14 09:03:32;;;;;;;60.40;57.28;;;;;;;22.62;47.20;101758.31;5073014;28;20048;-79
2023/05/14 09:05:58;;;;;;;62.47;59.13;;;;;;;22.67;47.61;101761.00;5054890;28;20040;-81
2023/05/14 09:08:24;;;;;;;65.68;61.72;;;;;;;22.71;47.43;101758.47;5072647;28;20037;-80
2023/05/14 09:10:49;;;;;;;65.20;61.70;;;;;;;22.76;47.61;101755.63;5073059;28;20053;-81
2023/05/14 09:13:15;;;;;;;66.20;62.20;;;;;;;22.80;47.28;101756.66;5076713;28;20040;-81
2023/05/14 09:15:40;;;;;;;64.13;60.40;;;;;;;22.84;47.31;101757.69;5077114;28;20110;-82
2023/05/14 09:18:06;;;;;;;64.65;61.00;;;;;;;22.90;47.50;101754.53;5076336;28;20029;-81
2023/05/14 09:20:32;;;;;;;63.60;60.05;;;;;;;22.94;47.20;101756.72;5077017;28;20107;-81
2023/05/14 09:23:00;;;;;;;64.72;61.22;;;;;;;22.98;47.37;101744.81;5058704;28;20460;-80
2023/05/14 09:25:27;;;;;;;65.10;61.22;;;;;;;23.04;47.61;101745.53;5076962;28;20033;-79
2023/05/14 09:27:53;;;;;;;65.13;61.63;;;;;;;23.08;47.43;101743.78;5076522;28;20086;-79
2023/05/14 09:30:19;;;;;;;65.82;62.25;;;;;;;23.11;47.40;101746.78;5076994;28;20060;-80
2023/05/14 09:32:49;;;;;;;66.47;62.78;;;;;;;23.17;47.48;101739.22;5076572;28;20460;-77
2023/05/14 09:35:20;;;;;;;64.57;61.22;;;;;;;23.21;47.75;101736.66;5059246;28;20063;-81
2023/05/14 09:37:51;;;;;;;65.85;62.25;;;;;;;23.27;47.40;101741.78;5076210;28;20464;-80
2023/05/14 09:40:19;;;;;;;65.88;62.47;;;;;;;23.35;47.89;101733.94;5076505;28;20035;-81
2023/05/14 09:42:45;;;;;;;65.20;61.70;;;;;;;23.39;47.86;101730.28;5076167;28;20448;-78
2023/05/14 09:45:11;;;;;;;65.78;62.38;;;;;;;23.45;47.48;101728.22;5076231;28;20029;-80
2023/05/14 09:47:37;;;;;;;71.90;67.05;;;;;;;23.52;47.13;101728.66;5076278;28;20115;-81
2023/05/14 09:50:04;;;;;;;70.70;66.68;;;;;;;23.58;47.72;101724.66;5076232;28;20107;-82
2023/05/14 09:52:29;;;;;;;69.97;65.88;;;;;;;23.64;47.26;101725.38;5075948;28;20116;-81
2023/05/14 09:54:55;;;;;;;70.45;66.72;;;;;;;23.68;47.80;101729.94;5076595;28;20525;-79
2023/05/14 09:57:20;;;;;;;68.53;65.00;;;;;;;23.72;47.76;101730.16;5076310;28;20464;-79
2023/05/14 09:59:46;;;;;;;70.70;66.65;;;;;;;23.78;47.66;101712.41;5076070;28;20048;-76
2023/05/14 10:02:18;;;;;;;70.85;66.93;;;;;;;23.84;47.98;101722.22;5076323;28;20437;-77
2023/05/14 10:04:44;;;;;;;68.80;65.03;;;;;;;23.90;47.99;101714.66;5076007;28;20021;-77
2023/05/14 10:07:10;;;;;;;68.88;65.30;;;;;;;23.96;47.67;101719.75;5075838;28;20491;-76
2023/05/14 10:09:38;;;;;;;72.07;68.25;;;;;;;24.00;48.12;101719.94;5057514;28;20048;-77
2023/05/14 10:12:05;;;;;;;72.70;68.75;;;;;;;24.06;48.30;101710.41;5075679;28;20045;-77
2023/05/14 10:14:39;;;;;;;71.13;67.35;;;;;;;24.13;48.23;101713.56;5075562;28;20032;-77
2023/05/14 10:17:06;;;;;;;76.50;72.30;;;;;;;24.19;48.09;101703.22;5058171;28;20024;-76
2023/05/14 10:19:34;;;;;;;73.30;69.40;;;;;;;24.26;47.89;101703.59;5057967;28;20037;-78
2023/05/14 10:22:11;;;;;;;73.43;69.53;;;;;;;24.33;48.02;101708.69;5075530;28;20060;-77
2023/05/14 10:24:37;;;;;;;71.65;67.95;;;;;;;24.39;48.10;101699.16;5074891;28;20263;-77
2023/05/14 10:27:03;;;;;;;75.18;71.25;;;;;;;24.44;48.09;101701.78;5058152;28;20025;-78
2023/05/14 10:29:36;;;;;;;71.75;68.05;;;;;;;24.51;48.20;101693.09;5075359;28;20048;-77
2023/05/14 10:32:07;;;;;;;74.13;70.20;;;;;;;24.56;48.19;101696.53;5075368;28;20028;-77
2023/05/14 10:34:37;;;;;;;76.95;73.00;;;;;;;24.63;47.76;101698.06;5075496;28;20096;-77
2023/05/14 10:37:06;;;;;;;73.15;69.50;;;;;;;24.68;48.11;101692.41;5075221;28;20059;-77
2023/05/14 10:39:56;;;;;;;80.68;76.15;;;;;;;24.74;47.66;101691.13;5075154;28;20059;-77
2023/05/14 10:42:27;;;;;;;75.10;71.15;;;;;;;24.80;47.95;101692.66;5075295;28;20040;-77
2023/05/14 10:44:58;;;;;;;75.63;71.70;;;;;;;24.85;47.90;101689.75;5075214;28;20376;-73
2023/05/14 10:47:28;;;;;;;76.07;72.05;;;;;;;24.91;47.61;101694.00;5075757;28;20123;-73
2023/05/14 10:49:56;;;;;;;77.60;73.40;;;;;;;24.94;47.29;101682.31;5075302;28;20091;-82
2023/05/14 10:52:22;;;;;;;78.03;73.72;;;;;;;25.01;47.49;101679.09;5057625;28;20031;-77
2023/05/14 10:54:59;;;;;;;79.57;75.35;;;;;;;25.05;47.40;101685.63;5057585;28;20028;-77
2023/05/14 10:57:26;;;;;;;77.63;73.43;;;;;;;25.12;47.46;101683.19;5075697;28;20406;-77
2023/05/14 10:59:57;;;;;;;82.13;77.68;;;;;;;25.16;47.37;101678.72;5075143;28;20115;-77
2023/05/14 11:02:35;;;;;;;81.00;76.80;;;;;;;25.23;47.25;101661.66;5074848;28;20032;-76
2023/05/14 11:05:12;;;;;;;79.68;75.60;;;;;;;25.29;47.46;101670.63;5075126;28;20039;-76